Time;durP1;ratioP1;P1;durP2;ratioP2;P2;SDS_P1;SDS_P2;PMS_P1;PMS_P2;Temp;Humidity;BMP_temperature;BMP_pressure;BME280_temperature;BME280_humidity;BME280_pressure;Samples;Min_cycle;Max_cycle;Signal;HPM_P1;HPM_P2
2021/04/11 00:01:03;;;;;;;2.45;1.13;;;21.30;42.70;;;;;;5090902;28;20501;-55
2021/04/11 00:03:29;;;;;;;2.45;0.98;;;21.30;42.70;;;;;;5091214;28;20025;-57
2021/04/11 00:05:55;;;;;;;4.13;0.90;;;21.20;42.60;;;;;;5091307;28;20061;-51
2021/04/11 00:08:22;;;;;;;2.20;1.30;;;21.20;42.60;;;;;;5090060;28;20127;-54
2021/04/11 00:10:54;;;;;;;1.85;1.08;;;21.20;42.60;;;;;;5090592;28;20111;-51
2021/04/11 00:13:26;;;;;;;2.40;1.00;;;21.30;42.60;;;;;;5091173;28;20042;-50
2021/04/11 00:15:51;;;;;;;;;;;21.20;42.50;;;;;;5090673;28;20040;-54
2021/04/11 00:18:18;;;;;;;1.88;0.95;;;21.20;42.50;;;;;;5091451;28;19904;-48
2021/04/11 00:20:44;;;;;;;2.28;1.35;;;21.20;42.50;;;;;;5090669;28;20063;-53
2021/04/11 00:23:10;;;;;;;1.58;0.90;;;21.20;42.50;;;;;;5091373;28;20024;-51
2021/04/11 00:25:39;;;;;;;1.98;0.90;;;21.20;42.50;;;;;;5090002;28;20032;-54
2021/04/11 00:28:06;;;;;;;2.08;1.10;;;21.20;42.50;;;;;;5091014;28;20046;-56
2021/04/11 00:30:31;;;;;;;1.60;1.10;;;21.20;42.40;;;;;;5090876;28;20103;-57
2021/04/11 00:33:00;;;;;;;2.03;0.73;;;21.20;42.40;;;;;;5091016;28;20537;-53
2021/04/11 00:35:26;;;;;;;2.42;0.90;;;21.20;42.40;;;;;;5091001;28;20070;-52
2021/04/11 00:37:52;;;;;;;2.15;0.98;;;21.20;42.40;;;;;;5090287;28;20024;-53
2021/04/11 00:40:30;;;;;;;1.67;0.88;;;21.20;42.40;;;;;;5091185;28;20054;-52
2021/04/11 00:43:03;;;;;;;4.20;1.00;;;21.20;42.40;;;;;;5090213;28;20044;-51
2021/04/11 00:45:36;;;;;;;1.70;0.90;;;21.20;42.40;;;;;;5083137;28;20016;-54
2021/04/11 00:48:02;;;;;;;1.63;1.00;;;21.10;42.40;;;;;;5090934;28;20103;-54
2021/04/11 00:50:28;;;;;;;1.27;0.95;;;21.10;42.30;;;;;;5091214;28;20035;-53
2021/04/11 00:52:54;;;;;;;2.05;0.90;;;21.20;42.40;;;;;;5089753;28;20039;-51
2021/04/11 00:55:22;;;;;;;1.83;0.90;;;21.10;42.40;;;;;;5090930;28;20362;-55
2021/04/11 00:57:49;;;;;;;3.08;1.00;;;21.10;42.40;;;;;;5081409;28;20103;-53
2021/04/11 01:00:16;;;;;;;2.67;1.02;;;21.20;42.50;;;;;;5093895;28;20070;-54
2021/04/11 01:02:42;;;;;;;1.38;1.00;;;21.10;42.40;;;;;;5093982;28;20036;-54
2021/04/11 01:05:22;;;;;;;0.82;0.63;;;21.10;42.40;;;;;;5094599;28;20028;-53
2021/04/11 01:07:50;;;;;;;2.25;0.60;;;21.10;42.40;;;;;;5093663;28;20032;-54
2021/04/11 01:10:21;;;;;;;0.90;0.70;;;21.10;42.40;;;;;;5094264;28;20028;-54
2021/04/11 01:12:46;;;;;;;1.85;0.90;;;21.10;42.40;;;;;;5093498;28;20032;-51
2021/04/11 01:15:25;;;;;;;1.20;0.70;;;21.10;42.40;;;;;;5094336;28;20354;-54
2021/04/11 01:17:51;;;;;;;2.05;0.95;;;21.10;42.40;;;;;;5093279;28;20570;-56
2021/04/11 01:20:18;;;;;;;1.23;0.80;;;21.10;42.40;;;;;;5094251;28;20028;-54
2021/04/11 01:22:46;;;;;;;2.03;0.90;;;21.10;42.40;;;;;;5093150;28;20042;-53
2021/04/11 01:25:19;;;;;;;1.42;0.93;;;21.10;42.30;;;;;;5094198;28;20119;-54
2021/04/11 01:27:45;;;;;;;1.92;0.88;;;21.10;42.40;;;;;;5086088;28;20032;-55
2021/04/11 01:30:20;;;;;;;1.50;0.65;;;21.10;42.50;;;;;;5093938;28;20115;-54
2021/04/11 01:32:46;;;;;;;1.73;0.93;;;21.10;42.50;;;;;;5093043;28;20036;-54
2021/04/11 01:35:15;;;;;;;3.88;1.10;;;21.10;42.50;;;;;;5093859;28;20038;-50
2021/04/11 01:37:41;;;;;;;1.27;0.93;;;21.10;42.50;;;;;;5091585;28;20020;-54
2021/04/11 01:40:11;;;;;;;1.83;0.73;;;21.10;42.50;;;;;;5093818;28;20220;-49
2021/04/11 01:42:37;;;;;;;1.58;1.35;;;21.10;42.40;;;;;;5093020;28;20074;-50
2021/04/11 01:45:03;;;;;;;1.65;0.70;;;21.10;42.40;;;;;;5093323;28;20028;-52
2021/04/11 01:47:29;;;;;;;2.80;1.00;;;21.10;42.40;;;;;;5093887;28;20031;-49
2021/04/11 01:49:54;;;;;;;1.67;0.80;;;21.00;42.40;;;;;;5092654;28;20024;-51
2021/04/11 01:52:25;;;;;;;1.52;0.88;;;21.10;42.40;;;;;;5093829;28;20433;-52
2021/04/11 01:54:52;;;;;;;1.75;0.80;;;21.10;42.40;;;;;;5092904;28;20265;-48
2021/04/11 01:57:23;;;;;;;1.70;0.80;;;21.00;42.30;;;;;;5093275;28;20032;-48
2021/04/11 01:59:49;;;;;;;1.55;0.85;;;21.00;42.30;;;;;;5092250;28;20370;-53
2021/04/11 02:02:18;;;;;;;0.82;0.70;;;21.00;42.40;;;;;;5093204;28;20109;-52
2021/04/11 02:04:45;;;;;;;1.48;0.68;;;21.00;42.30;;;;;;5092114;28;20053;-57
2021/04/11 02:07:13;;;;;;;0.77;0.70;;;21.00;42.30;;;;;;5093178;28;20028;-57
2021/04/11 02:09:47;;;;;;;2.00;1.08;;;21.00;42.30;;;;;;5091964;28;20487;-57
2021/04/11 02:12:15;;;;;;;3.03;0.75;;;21.00;42.30;;;;;;5085840;28;20086;-57
2021/04/11 02:14:43;;;;;;;2.08;0.80;;;21.00;42.30;;;;;;5092160;28;20020;-56
2021/04/11 02:17:10;;;;;;;2.17;1.00;;;21.00;42.30;;;;;;5093033;28;20097;-55
2021/04/11 02:19:37;;;;;;;1.50;0.82;;;21.00;42.30;;;;;;5092294;28;20020;-55
2021/04/11 02:22:35;;;;;;;2.17;0.80;;;21.00;42.30;;;;;;5093150;28;20036;-52
2021/04/11 02:25:01;;;;;;;3.13;0.90;;;21.00;42.30;;;;;;5047551;28;20101;-54
2021/04/11 02:27:28;;;;;;;2.08;0.75;;;21.00;42.30;;;;;;5092548;28;20028;-52
2021/04/11 02:29:53;;;;;;;1.95;0.93;;;21.00;42.30;;;;;;5092135;28;20477;-54
2021/04/11 02:32:21;;;;;;;1.52;0.90;;;21.00;42.30;;;;;;5092493;28;20107;-52
2021/04/11 02:34:46;;;;;;;1.85;0.90;;;21.00;42.30;;;;;;5090809;28;20032;-54
2021/04/11 02:37:20;;;;;;;1.52;0.90;;;21.00;42.30;;;;;;5092406;28;20389;-54
2021/04/11 02:39:46;;;;;;;1.92;0.90;;;21.00;42.30;;;;;;5092048;28;20354;-53
2021/04/11 02:42:22;;;;;;;1.75;1.15;;;21.00;42.30;;;;;;5092660;28;20039;-52
2021/04/11 02:44:50;;;;;;;2.15;0.85;;;21.00;42.30;;;;;;5091560;28;20035;-51
2021/04/11 02:47:16;;;;;;;2.35;0.90;;;20.90;42.20;;;;;;5092440;28;20036;-56
2021/04/11 02:49:49;;;;;;;0.82;0.60;;;20.90;42.20;;;;;;5091836;28;20027;-51
2021/04/11 02:52:33;;;;;;;1.30;0.70;;;20.90;42.20;;;;;;5092413;28;20111;-54
2021/04/11 02:54:59;;;;;;;0.70;0.60;;;21.00;42.30;;;;;;5092124;28;20115;-54
2021/04/11 02:57:26;;;;;;;2.08;0.90;;;20.90;42.30;;;;;;5092289;28;20162;-51
2021/04/11 02:59:53;;;;;;;1.45;0.77;;;20.90;42.20;;;;;;5091699;28;20024;-53
2021/04/11 03:02:19;;;;;;;3.10;1.42;;;20.90;42.20;;;;;;5091736;28;20047;-48
2021/04/11 03:04:45;;;;;;;1.33;0.73;;;20.90;42.20;;;;;;5091320;28;20062;-52
2021/04/11 03:07:17;;;;;;;1.05;0.73;;;20.90;42.30;;;;;;5091321;28;20024;-54
2021/04/11 03:09:47;;;;;;;1.65;0.95;;;20.90;42.30;;;;;;5091531;28;20024;-51
2021/04/11 03:12:13;;;;;;;2.38;0.73;;;20.90;42.30;;;;;;5091993;28;20123;-51
2021/04/11 03:14:41;;;;;;;1.52;1.00;;;20.90;42.30;;;;;;5091053;28;20027;-51
2021/04/11 03:17:14;;;;;;;1.20;0.82;;;20.90;42.30;;;;;;5091846;28;20028;-51
2021/04/11 03:20:05;;;;;;;1.27;0.88;;;20.90;42.30;;;;;;5091379;28;20050;-52
2021/04/11 03:22:31;;;;;;;2.10;0.88;;;20.90;42.30;;;;;;5091709;28;20047;-52
2021/04/11 03:24:57;;;;;;;1.48;0.80;;;20.90;42.30;;;;;;5091213;28;20035;-50
2021/04/11 03:27:39;;;;;;;4.25;1.17;;;20.90;42.30;;;;;;5091551;28;20028;-54
2021/04/11 03:30:10;;;;;;;;;;;20.90;42.30;;;;;;5092662;28;20040;-54
2021/04/11 03:32:42;;;;;;;1.42;0.82;;;20.90;42.30;;;;;;5091375;28;19912;-54
2021/04/11 03:35:10;;;;;;;3.10;1.13;;;20.90;42.30;;;;;;5091990;28;20419;-55
2021/04/11 03:37:37;;;;;;;1.75;1.00;;;20.90;42.30;;;;;;5091263;28;20097;-58
2021/04/11 03:40:05;;;;;;;2.15;0.70;;;20.90;42.30;;;;;;5091077;28;20107;-54
2021/04/11 03:42:34;;;;;;;2.83;1.00;;;20.90;42.30;;;;;;5084808;28;20128;-52
2021/04/11 03:45:00;;;;;;;2.15;0.80;;;20.90;42.30;;;;;;5090913;28;20038;-52
2021/04/11 03:47:31;;;;;;;1.63;1.45;;;20.90;43.10;;;;;;5091280;28;20107;-52
2021/04/11 03:50:21;;;;;;;1.52;1.05;;;20.90;42.40;;;;;;5090519;28;20072;-50
2021/04/11 03:53:19;;;;;;;1.85;1.08;;;20.90;42.40;;;;;;5090853;28;20107;-49
2021/04/11 03:55:48;;;;;;;1.15;0.80;;;20.90;42.30;;;;;;5086204;28;20040;-52
2021/04/11 03:58:27;;;;;;;1.95;0.98;;;20.90;42.40;;;;;;5091538;28;20358;-51
2021/04/11 04:01:12;;;;;;;1.70;0.90;;;20.90;42.30;;;;;;5089949;28;20135;-49
2021/04/11 04:03:40;;;;;;;1.42;0.80;;;20.90;42.40;;;;;;5089633;28;20016;-57
2021/04/11 04:06:10;;;;;;;1.83;0.80;;;20.90;42.40;;;;;;5082628;28;20039;-52
2021/04/11 04:08:36;;;;;;;1.27;0.80;;;20.90;42.40;;;;;;5091305;28;20105;-57
2021/04/11 04:11:04;;;;;;;1.20;0.80;;;20.90;42.40;;;;;;5090735;28;20073;-46
2021/04/11 04:14:04;;;;;;;3.97;1.13;;;20.90;42.40;;;;;;5091635;28;20105;-55
2021/04/11 04:16:55;;;;;;;5.00;1.27;;;20.90;42.50;;;;;;5091362;28;20365;-50
2021/04/11 04:19:27;;;;;;;4.35;1.00;;;20.80;42.40;;;;;;5091180;28;20033;-51
2021/04/11 04:21:58;;;;;;;2.03;0.82;;;20.90;42.40;;;;;;5090416;28;20035;-54
2021/04/11 04:24:51;;;;;;;3.50;1.10;;;20.80;42.40;;;;;;5091414;28;20134;-51
2021/04/11 04:27:35;;;;;;;2.08;0.70;;;20.80;42.40;;;;;;5091323;28;20453;-52
2021/04/11 04:30:23;;;;;;;2.67;0.82;;;20.80;42.40;;;;;;5090316;28;20036;-48
2021/04/11 04:33:17;;;;;;;5.28;0.82;;;20.80;42.40;;;;;;5089886;28;20477;-52
2021/04/11 04:36:02;;;;;;;1.70;0.90;;;20.80;42.50;;;;;;5093649;28;20473;-50
2021/04/11 04:38:41;;;;;;;2.65;1.70;;;20.80;42.50;;;;;;5095035;28;20035;-48
2021/04/11 04:41:16;;;;;;;2.30;0.93;;;20.80;42.50;;;;;;5094540;28;20074;-49
2021/04/11 04:43:59;;;;;;;3.55;1.30;;;20.80;42.50;;;;;;5094361;28;20024;-53
2021/04/11 04:46:39;;;;;;;3.85;1.20;;;20.80;42.50;;;;;;5094598;28;20107;-52
2021/04/11 04:49:22;;;;;;;3.10;1.30;;;20.80;42.40;;;;;;5094348;28;20106;-47
2021/04/11 04:51:57;;;;;;;2.15;0.88;;;20.80;42.50;;;;;;5093860;28;20451;-49
2021/04/11 04:54:31;;;;;;;4.32;1.05;;;20.80;42.30;;;;;;5092116;28;20042;-48
2021/04/11 04:57:19;;;;;;;1.77;1.10;;;20.80;42.40;;;;;;5094163;28;20109;-49
2021/04/11 05:00:08;;;;;;;4.05;1.45;;;20.80;42.40;;;;;;5093607;28;20044;-52
2021/04/11 05:02:47;;;;;;;3.33;1.10;;;20.80;42.40;;;;;;5094479;28;20439;-49
2021/04/11 05:05:16;;;;;;;3.22;0.98;;;20.80;42.40;;;;;;5094729;28;20028;-50
2021/04/11 05:08:07;;;;;;;2.40;0.70;;;20.80;42.30;;;;;;5093566;28;20024;-57
2021/04/11 05:10:40;;;;;;;2.40;1.33;;;20.80;42.40;;;;;;5094734;28;20028;-51
2021/04/11 05:13:20;;;;;;;3.22;1.10;;;20.80;42.40;;;;;;5093726;28;20025;-48
2021/04/11 05:15:52;;;;;;;2.40;1.23;;;20.80;42.30;;;;;;5093672;28;20446;-56
2021/04/11 05:18:36;;;;;;;3.42;1.02;;;20.80;42.30;;;;;;5086598;28;20373;-49
2021/04/11 05:21:10;;;;;;;2.72;1.23;;;20.80;42.30;;;;;;5092196;28;20625;-53
2021/04/11 05:23:46;;;;;;;4.38;1.23;;;20.80;42.30;;;;;;5094143;28;20024;-49
2021/04/11 05:26:37;;;;;;;3.20;1.35;;;20.80;42.40;;;;;;5094253;28;20519;-52
2021/04/11 05:29:38;;;;;;;3.28;1.20;;;20.80;42.30;;;;;;5080268;28;20618;-49
2021/04/11 05:32:04;;;;;;;2.22;1.00;;;20.80;42.30;;;;;;5040695;28;20174;-51
2021/04/11 05:34:30;;;;;;;3.63;1.45;;;20.80;42.30;;;;;;5093911;28;20047;-52
2021/04/11 05:37:14;;;;;;;2.53;1.00;;;20.80;42.30;;;;;;5092945;28;20046;-54
2021/04/11 05:39:56;;;;;;;2.55;1.00;;;20.80;42.30;;;;;;5091827;28;20028;-54
2021/04/11 05:42:35;;;;;;;3.38;1.30;;;20.80;42.30;;;;;;5092316;28;20374;-53
2021/04/11 05:45:15;;;;;;;5.68;1.30;;;20.80;42.50;;;;;;5092785;28;20643;-50
2021/04/11 05:47:40;;;;;;;1.67;1.00;;;20.80;42.40;;;;;;5091879;28;20032;-58
2021/04/11 05:50:22;;;;;;;3.72;1.60;;;20.80;42.50;;;;;;5093223;28;20032;-52
2021/04/11 05:53:00;;;;;;;1.90;1.00;;;20.80;42.50;;;;;;5092977;28;20024;-51
2021/04/11 05:55:29;;;;;;;2.88;1.08;;;20.80;42.60;;;;;;5093706;28;20085;-52
2021/04/11 05:58:04;;;;;;;2.42;1.10;;;20.80;42.80;;;;;;5084928;28;20043;-47
2021/04/11 06:00:41;;;;;;;3.63;1.10;;;20.80;42.70;;;;;;5093732;28;20124;-51
2021/04/11 06:03:11;;;;;;;11.90;1.58;;;20.80;42.80;;;;;;5084967;28;20473;-52
2021/04/11 06:06:10;;;;;;;4.00;1.45;;;20.80;42.70;;;;;;5093397;28;20023;-48
2021/04/11 06:08:54;;;;;;;5.38;1.50;;;20.80;42.70;;;;;;5093370;28;20035;-48
2021/04/11 06:11:58;;;;;;;4.35;1.17;;;20.80;42.70;;;;;;5093622;28;20081;-50
2021/04/11 06:14:43;;;;;;;11.65;1.60;;;20.80;42.80;;;;;;5010839;28;20030;-52
2021/04/11 06:17:11;;;;;;;3.97;1.30;;;20.80;42.80;;;;;;5010652;28;20030;-50
2021/04/11 06:19:37;;;;;;;2.65;1.35;;;20.80;42.90;;;;;;5061109;28;20042;-50
2021/04/11 06:22:26;;;;;;;5.80;1.30;;;20.80;42.90;;;;;;5092120;28;20186;-48
2021/04/11 06:25:02;;;;;;;5.97;1.65;;;20.80;43.20;;;;;;5092461;28;20032;-47
2021/04/11 06:27:52;;;;;;;12.32;1.95;;;20.80;43.60;;;;;;5093127;28;20047;-47
2021/04/11 06:30:25;;;;;;;6.25;2.08;;;20.80;44.00;;;;;;5092829;28;20388;-54
2021/04/11 06:33:00;;;;;;;6.72;2.05;;;20.80;41.30;;;;;;5092233;28;20115;-51
2021/04/11 06:35:54;;;;;;;3.55;2.03;;;20.70;41.60;;;;;;5091667;28;20024;-48
2021/04/11 06:38:26;;;;;;;4.40;2.08;;;20.70;41.20;;;;;;5088097;28;20036;-53
2021/04/11 06:41:06;;;;;;;6.05;2.33;;;20.60;41.00;;;;;;5086063;28;20054;-54
2021/04/11 06:44:04;;;;;;;6.95;3.00;;;20.60;41.40;;;;;;5091531;28;20040;-49
2021/04/11 06:46:50;;;;;;;6.95;2.13;;;20.60;40.90;;;;;;5059446;28;20033;-50
2021/04/11 06:49:48;;;;;;;4.82;2.42;;;20.60;40.50;;;;;;5092305;28;20369;-52
2021/04/11 06:52:51;;;;;;;4.57;1.95;;;20.50;40.00;;;;;;5092487;28;20027;-53
2021/04/11 06:55:43;;;;;;;4.15;1.70;;;20.50;39.80;;;;;;5089121;28;20499;-55
2021/04/11 06:58:30;;;;;;;6.70;2.58;;;20.50;39.70;;;;;;5091453;28;20032;-52
2021/04/11 07:01:38;;;;;;;2.72;1.63;;;20.50;39.50;;;;;;5083863;28;20052;-48
2021/04/11 07:04:27;;;;;;;2.53;1.48;;;20.50;39.60;;;;;;5072969;28;20063;-48
2021/04/11 07:07:40;;;;;;;3.35;1.95;;;20.50;39.80;;;;;;5091370;28;20020;-57
2021/04/11 07:10:24;;;;;;;2.75;1.60;;;20.50;39.50;;;;;;5040293;28;20032;-51
2021/04/11 07:13:20;;;;;;;3.72;1.75;;;20.50;39.60;;;;;;5088037;28;20073;-55
2021/04/11 07:16:22;;;;;;;5.13;1.55;;;20.50;39.60;;;;;;5092472;28;20028;-53
2021/04/11 07:19:32;;;;;;;4.28;1.42;;;20.50;40.10;;;;;;5092235;28;20024;-51
2021/04/11 07:22:31;;;;;;;2.50;1.17;;;20.40;39.50;;;;;;5069699;28;20079;-53
2021/04/11 07:25:36;;;;;;;5.68;1.25;;;20.40;38.80;;;;;;5075783;28;20040;-46
2021/04/11 07:28:26;;;;;;;5.05;1.60;;;20.40;39.10;;;;;;5080371;28;20060;-49
2021/04/11 07:31:34;;;;;;;4.05;1.77;;;20.40;39.40;;;;;;5085149;28;20373;-52
2021/04/11 07:34:09;;;;;;;5.03;1.20;;;20.40;39.50;;;;;;5090929;28;20050;-45
2021/04/11 07:37:02;;;;;;;2.17;1.42;;;20.40;39.70;;;;;;5091459;28;20456;-44
2021/04/11 07:39:49;;;;;;;1.85;1.25;;;20.40;39.60;;;;;;5091869;28;20047;-46
2021/04/11 07:43:00;;;;;;;4.60;1.85;;;20.40;40.00;;;;;;5084319;28;20473;-49
2021/04/11 07:45:30;;;;;;;4.85;1.40;;;20.40;39.60;;;;;;5050295;28;20028;-49
2021/04/11 07:48:16;;;;;;;3.72;1.52;;;20.50;39.80;;;;;;5091831;28;20059;-47
2021/04/11 07:51:09;;;;;;;3.72;1.15;;;20.50;41.30;;;;;;5091140;28;20123;-45
2021/04/11 07:54:22;;;;;;;4.53;1.35;;;20.50;39.70;;;;;;5091163;28;20031;-49
2021/04/11 07:56:57;;;;;;;3.60;0.85;;;20.50;40.10;;;;;;5091674;28;20050;-48
2021/04/11 08:00:03;;;;;;;5.20;1.42;;;20.60;40.40;;;;;;5078462;28;20558;-45
2021/04/11 08:02:51;;;;;;;4.13;1.17;;;20.70;40.80;;;;;;5087109;28;20040;-47
2021/04/11 08:05:25;;;;;;;2.03;1.15;;;20.70;41.20;;;;;;5084037;28;20020;-50
2021/04/11 08:08:10;;;;;;;2.28;1.08;;;20.70;41.30;;;;;;5091057;28;20048;-56
2021/04/11 08:11:03;;;;;;;2.25;0.70;;;20.70;41.60;;;;;;5093824;28;20354;-52
2021/04/11 08:13:47;;;;;;;3.47;1.00;;;20.80;41.70;;;;;;5094494;28;20032;-51
2021/04/11 08:16:58;;;;;;;2.28;1.17;;;20.80;41.60;;;;;;5093176;28;20060;-45
2021/04/11 08:19:50;;;;;;;6.55;2.38;;;20.80;41.80;;;;;;5094779;28;20038;-46
2021/04/11 08:22:24;;;;;;;2.45;1.10;;;20.90;42.60;;;;;;5094340;28;20045;-46
2021/04/11 08:25:10;;;;;;;1.17;0.80;;;20.90;42.80;;;;;;5095347;28;20031;-45
2021/04/11 08:28:00;;;;;;;2.83;1.20;;;20.90;43.00;;;;;;5095147;28;20099;-45
2021/04/11 08:31:07;;;;;;;1.17;0.73;;;20.90;42.90;;;;;;5084849;28;20060;-46
2021/04/11 08:33:32;;;;;;;1.23;0.80;;;20.90;43.00;;;;;;5087442;28;20492;-47
2021/04/11 08:36:07;;;;;;;2.60;0.80;;;20.90;43.50;;;;;;5094584;28;20028;-45
2021/04/11 08:39:03;;;;;;;5.03;1.02;;;20.90;43.50;;;;;;5094015;28;20035;-45
2021/04/11 08:41:48;;;;;;;3.05;0.90;;;20.90;43.70;;;;;;5094661;28;20081;-45
2021/04/11 08:44:32;;;;;;;4.10;1.02;;;20.90;43.80;;;;;;5093957;28;20027;-49
2021/04/11 08:47:19;;;;;;;1.35;0.70;;;20.90;43.80;;;;;;5094283;28;20032;-49
2021/04/11 08:49:58;;;;;;;1.98;0.90;;;20.90;43.90;;;;;;5094497;28;20040;-47
2021/04/11 08:52:37;;;;;;;1.33;0.90;;;20.90;43.90;;;;;;5094446;28;20024;-45
2021/04/11 08:55:28;;;;;;;2.42;1.02;;;20.90;43.90;;;;;;5093858;28;20377;-46
2021/04/11 08:58:26;;;;;;;2.42;0.80;;;20.90;43.90;;;;;;5092914;28;20023;-52
2021/04/11 09:01:13;;;;;;;3.95;0.85;;;20.90;43.90;;;;;;5087145;28;20032;-44
2021/04/11 09:04:07;;;;;;;1.90;0.93;;;21.00;44.00;;;;;;5092296;28;20039;-47
2021/04/11 09:07:17;;;;;;;1.50;1.08;;;21.00;44.00;;;;;;5094205;28;20101;-48
2021/04/11 09:10:11;;;;;;;2.17;0.85;;;21.00;43.90;;;;;;5094085;28;20020;-49
2021/04/11 09:13:02;;;;;;;1.20;0.85;;;21.00;44.00;;;;;;5094076;28;20073;-46
2021/04/11 09:15:40;;;;;;;2.55;0.73;;;21.00;44.10;;;;;;5087253;28;20035;-48
2021/04/11 09:18:05;;;;;;;1.88;0.90;;;21.10;44.10;;;;;;5093148;28;20034;-47
2021/04/11 09:21:08;;;;;;;1.77;1.50;;;21.00;44.10;;;;;;5091869;28;20028;-49
2021/04/11 09:23:34;;;;;;;2.53;0.82;;;21.10;44.20;;;;;;5094216;28;20111;-46
2021/04/11 09:26:15;;;;;;;2.72;0.90;;;21.10;44.60;;;;;;5093070;28;20060;-46
2021/04/11 09:28:52;;;;;;;3.55;1.33;;;21.10;44.50;;;;;;5079468;28;20047;-51
2021/04/11 09:31:35;;;;;;;6.13;0.90;;;21.10;44.50;;;;;;5082823;28;20055;-45
2021/04/11 09:34:09;;;;;;;13.48;1.88;;;21.10;44.60;;;;;;5086888;28;20032;-47
2021/04/11 09:36:57;;;;;;;1.80;1.10;;;21.10;44.80;;;;;;5092483;28;20085;-51
2021/04/11 09:39:42;;;;;;;1.73;0.80;;;21.10;44.80;;;;;;5093168;28;20028;-48
2021/04/11 09:42:33;;;;;;;2.60;0.82;;;21.10;45.00;;;;;;5092862;28;20089;-48
2021/04/11 09:45:25;;;;;;;3.92;1.25;;;21.10;45.10;;;;;;5092487;28;20032;-50
2021/04/11 09:48:09;;;;;;;4.18;1.27;;;21.10;45.20;;;;;;5070512;28;20540;-47
2021/04/11 09:50:59;;;;;;;4.18;1.00;;;21.10;45.20;;;;;;5093713;28;20055;-48
2021/04/11 09:53:30;;;;;;;2.60;1.25;;;21.10;45.40;;;;;;5086446;28;20038;-45
2021/04/11 09:56:14;;;;;;;2.47;1.20;;;21.10;45.50;;;;;;5092857;28;20032;-54
2021/04/11 09:58:48;;;;;;;2.33;1.13;;;21.10;45.50;;;;;;5092985;28;20032;-46
2021/04/11 10:01:26;;;;;;;2.90;1.00;;;21.10;45.50;;;;;;5092143;28;20117;-49
2021/04/11 10:04:09;;;;;;;3.42;1.00;;;21.10;45.60;;;;;;5093147;28;20028;-46
2021/04/11 10:07:02;;;;;;;3.05;1.70;;;21.10;45.60;;;;;;5093257;28;20031;-48
2021/04/11 10:09:49;;;;;;;2.30;1.00;;;21.10;45.40;;;;;;5092932;28;20373;-49
2021/04/11 10:12:24;;;;;;;5.00;1.90;;;21.10;45.60;;;;;;5092197;28;20637;-50
2021/04/11 10:15:15;;;;;;;9.13;2.67;;;21.10;49.00;;;;;;5092974;28;20047;-47
2021/04/11 10:18:18;;;;;;;4.15;1.17;;;21.20;51.00;;;;;;5092273;28;20028;-48
2021/04/11 10:20:58;;;;;;;9.80;1.90;;;21.20;48.50;;;;;;5092723;28;20039;-47
2021/04/11 10:23:48;;;;;;;8.85;2.10;;;21.20;48.50;;;;;;5092911;28;20059;-52
2021/04/11 10:26:23;;;;;;;12.82;1.13;;;21.20;48.60;;;;;;5091682;28;20086;-52
2021/04/11 10:29:08;;;;;;;6.97;1.10;;;21.20;49.10;;;;;;5092591;28;20032;-48
2021/04/11 10:31:45;;;;;;;5.18;0.90;;;21.30;48.90;;;;;;5090636;28;20028;-44
2021/04/11 10:34:23;;;;;;;5.75;1.00;;;21.30;48.80;;;;;;5091833;28;20085;-48
2021/04/11 10:36:51;;;;;;;7.13;0.93;;;21.20;48.60;;;;;;5092758;28;20051;-53
2021/04/11 10:39:35;;;;;;;4.70;0.77;;;21.30;48.60;;;;;;5091823;28;20093;-46
2021/04/11 10:42:36;;;;;;;3.92;0.80;;;21.30;49.80;;;;;;5091476;28;20028;-46
2021/04/11 10:45:14;;;;;;;3.15;0.90;;;21.30;49.00;;;;;;5090708;28;20385;-49
2021/04/11 10:48:12;;;;;;;9.57;1.08;;;21.30;48.80;;;;;;5091643;28;20465;-48
2021/04/11 10:50:56;;;;;;;2.90;0.77;;;21.30;48.80;;;;;;5091029;28;20028;-45
2021/04/11 10:53:52;;;;;;;2.45;1.00;;;21.30;48.80;;;;;;5092159;28;20053;-45
2021/04/11 10:57:00;;;;;;;7.05;1.00;;;21.30;48.70;;;;;;5091362;28;20016;-46
2021/04/11 10:59:56;;;;;;;2.88;1.05;;;21.30;48.80;;;;;;5088023;28;20451;-51
2021/04/11 11:02:31;;;;;;;1.48;0.82;;;21.30;48.60;;;;;;5091613;28;20048;-52
2021/04/11 11:05:02;;;;;;;1.88;0.70;;;21.30;48.60;;;;;;5091996;28;20032;-52
2021/04/11 11:07:36;;;;;;;5.47;1.40;;;21.30;48.50;;;;;;5083877;28;20031;-50
2021/04/11 11:10:22;;;;;;;1.90;0.63;;;21.30;48.50;;;;;;5091312;28;20393;-46
2021/04/11 11:13:10;;;;;;;4.53;0.77;;;21.30;48.40;;;;;;5092299;28;20099;-49
2021/04/11 11:16:01;;;;;;;1.73;0.80;;;21.30;48.30;;;;;;5091833;28;20048;-48
2021/04/11 11:18:36;;;;;;;2.53;1.13;;;21.30;48.10;;;;;;5091681;28;20415;-46
2021/04/11 11:21:19;;;;;;;4.13;1.10;;;21.30;48.20;;;;;;5084634;28;20461;-50
2021/04/11 11:24:11;;;;;;;1.77;0.63;;;21.30;47.80;;;;;;5091691;28;20116;-45
2021/04/11 11:27:22;;;;;;;2.08;0.60;;;21.20;47.50;;;;;;5091293;28;20031;-47
2021/04/11 11:30:06;;;;;;;1.60;0.63;;;21.20;47.40;;;;;;5088976;28;20082;-43
2021/04/11 11:32:43;;;;;;;2.13;0.93;;;21.20;47.30;;;;;;5090293;28;20035;-48
2021/04/11 11:35:11;;;;;;;1.73;0.77;;;21.20;47.20;;;;;;5089667;28;20119;-48
2021/04/11 11:37:59;;;;;;;2.65;0.70;;;21.20;47.40;;;;;;5091675;28;20063;-45
2021/04/11 11:40:47;;;;;;;4.65;0.68;;;21.20;47.30;;;;;;5091681;28;20525;-47
2021/04/11 11:43:28;;;;;;;5.45;1.00;;;21.20;47.20;;;;;;5088374;28;20040;-47
2021/04/11 11:46:29;;;;;;;7.82;1.35;;;21.20;47.20;;;;;;5090513;28;20131;-51
2021/04/11 11:49:37;;;;;;;7.80;0.85;;;21.10;47.10;;;;;;5090403;28;20038;-47
2021/04/11 11:52:08;;;;;;;6.85;1.00;;;21.20;47.10;;;;;;5048269;28;20115;-52
2021/04/11 11:54:43;;;;;;;5.20;1.00;;;21.20;47.20;;;;;;5091418;28;20063;-49
2021/04/11 11:57:16;;;;;;;9.90;1.20;;;21.20;47.40;;;;;;5089680;28;20036;-48
2021/04/11 11:59:48;;;;;;;7.90;1.50;;;21.20;47.70;;;;;;5090585;28;20035;-50
2021/04/11 12:02:52;;;;;;;9.85;2.17;;;21.20;47.70;;;;;;5090294;28;20104;-46
2021/04/11 12:05:38;;;;;;;11.68;1.92;;;21.20;48.30;;;;;;5078853;28;20032;-46
2021/04/11 12:08:13;;;;;;;12.70;1.58;;;21.20;48.30;;;;;;5089948;28;20028;-47
2021/04/11 12:11:01;;;;;;;8.32;2.03;;;21.10;48.30;;;;;;5091514;28;20024;-48
2021/04/11 12:13:41;;;;;;;13.40;2.67;;;21.10;48.30;;;;;;5089850;28;20063;-50
2021/04/11 12:16:28;;;;;;;13.07;1.20;;;21.20;48.20;;;;;;5091404;28;20020;-48
2021/04/11 12:19:06;;;;;;;5.93;1.60;;;21.20;47.80;;;;;;5090879;28;20114;-49
2021/04/11 12:21:48;;;;;;;9.77;2.20;;;21.30;47.90;;;;;;5091100;28;20036;-49
2021/04/11 12:24:13;;;;;;;5.78;1.20;;;21.30;47.60;;;;;;5089957;28;20059;-49
2021/04/11 12:26:50;;;;;;;7.53;1.42;;;21.30;47.50;;;;;;5091017;28;20059;-45
2021/04/11 12:29:20;;;;;;;9.70;2.10;;;21.30;47.40;;;;;;5089594;28;20032;-45
2021/04/11 12:31:56;;;;;;;8.35;1.42;;;21.30;47.30;;;;;;5090767;28;20036;-44
2021/04/11 12:34:39;;;;;;;8.55;1.20;;;21.40;47.40;;;;;;5090612;28;20024;-44
2021/04/11 12:37:27;;;;;;;5.75;1.10;;;21.40;47.20;;;;;;5082041;28;20052;-45
2021/04/11 12:40:14;;;;;;;7.35;1.13;;;21.40;47.00;;;;;;5090948;28;20020;-46
2021/04/11 12:43:21;;;;;;;2.58;1.00;;;21.40;47.10;;;;;;5090403;28;20477;-49
2021/04/11 12:46:01;;;;;;;6.93;1.02;;;21.50;47.90;;;;;;5090718;28;20081;-47
2021/04/11 12:49:07;;;;;;;10.52;1.52;;;21.50;48.10;;;;;;5089950;28;20156;-46
2021/04/11 12:51:41;;;;;;;6.03;1.17;;;21.60;48.10;;;;;;5015499;28;20104;-48
2021/04/11 12:54:31;;;;;;;5.75;1.38;;;21.60;48.50;;;;;;5086107;28;20418;-48
2021/04/11 12:57:02;;;;;;;3.20;1.00;;;21.60;48.40;;;;;;5093320;28;20060;-48
2021/04/11 12:59:58;;;;;;;4.47;1.17;;;21.70;48.10;;;;;;5085662;28;20052;-47
2021/04/11 13:03:02;;;;;;;5.47;1.15;;;21.70;48.10;;;;;;5089621;28;20133;-48
2021/04/11 13:05:46;;;;;;;12.63;1.60;;;21.70;48.30;;;;;;5058414;28;20131;-48
2021/04/11 13:08:18;;;;;;;11.73;1.20;;;21.70;48.30;;;;;;5094954;28;20458;-52
2021/04/11 13:10:50;;;;;;;9.70;1.40;;;21.70;47.90;;;;;;5094374;28;20023;-48
2021/04/11 13:13:46;;;;;;;5.05;1.20;;;21.70;47.80;;;;;;5091640;28;20028;-49
2021/04/11 13:16:27;;;;;;;5.20;1.05;;;21.70;47.80;;;;;;5093767;28;20055;-48
2021/04/11 13:19:04;;;;;;;4.80;1.10;;;21.70;48.10;;;;;;5094214;28;20020;-45
2021/04/11 13:21:54;;;;;;;4.05;1.00;;;21.80;48.10;;;;;;5093364;28;20020;-48
2021/04/11 13:24:43;;;;;;;4.38;1.17;;;21.80;48.00;;;;;;5091560;28;20044;-48
2021/04/11 13:27:15;;;;;;;3.00;1.00;;;21.80;48.30;;;;;;5053509;28;20060;-52
2021/04/11 13:29:46;;;;;;;;;;;21.70;47.90;;;;;;5093836;28;20073;-49
2021/04/11 13:32:26;;;;;;;5.93;1.40;;;21.80;48.10;;;;;;5093070;28;19912;-46
2021/04/11 13:35:39;;;;;;;3.95;1.02;;;21.80;47.90;;;;;;5087065;28;20024;-49
2021/04/11 13:38:35;;;;;;;7.28;1.45;;;21.80;47.80;;;;;;5049716;28;20081;-53
2021/04/11 13:41:19;;;;;;;4.45;1.50;;;21.80;47.60;;;;;;5093938;28;20093;-48
2021/04/11 13:44:02;;;;;;;5.07;1.45;;;21.80;47.60;;;;;;5093622;28;20043;-46
2021/04/11 13:47:18;;;;;;;5.57;1.30;;;21.80;47.50;;;;;;5093114;28;20024;-45
2021/04/11 13:50:39;;;;;;;5.20;1.85;;;21.80;47.40;;;;;;4988462;28;20030;-49
2021/04/11 13:53:52;;;;;;;5.65;1.80;;;21.80;47.50;;;;;;4933188;29;20074;-54
2021/04/11 13:56:48;;;;;;;6.68;1.50;;;21.90;47.40;;;;;;5046834;28;20079;-45